Time;durP1;ratioP1;P1;durP2;ratioP2;P2;SDS_P1;SDS_P2;PMS_P1;PMS_P2;Temp;Humidity;BMP_temperature;BMP_pressure;BME280_temperature;BME280_humidity;BME280_pressure;Samples;Min_cycle;Max_cycle;Signal;HPM_P1;HPM_P2
2022/02/20 00:01:24;;;;;;;2.90;0.43;;;;;11.60;100674.00;;;;5039179;28;20282;-81
2022/02/20 00:03:52;;;;;;;2.42;0.45;;;;;11.50;100679.00;;;;5048770;28;20202;-81
2022/02/20 00:06:19;;;;;;;2.83;0.30;;;;;11.50;100682.00;;;;5046064;28;20203;-82
2022/02/20 00:08:47;;;;;;;0.47;0.30;;;;;11.40;100690.00;;;;5049737;28;20269;-83
2022/02/20 00:11:15;;;;;;;2.92;0.25;;;;;11.50;100694.00;;;;5034885;28;20188;-81
2022/02/20 00:13:42;;;;;;;1.10;0.20;;;;;11.40;100701.00;;;;5044105;28;20203;-81
2022/02/20 00:16:09;;;;;;;3.83;0.55;;;;;11.40;100724.00;;;;5045237;28;20200;-81
2022/02/20 00:18:37;;;;;;;1.42;0.17;;;;;11.40;100725.00;;;;5050450;28;20231;-81
2022/02/20 00:21:05;;;;;;;4.85;0.30;;;;;11.40;100722.00;;;;5045519;28;20207;-82
2022/02/20 00:23:32;;;;;;;3.15;0.20;;;;;11.30;100737.00;;;;5045773;28;20222;-82
2022/02/20 00:26:00;;;;;;;1.70;0.20;;;;;11.30;100756.00;;;;5046225;28;20205;-82
2022/02/20 00:28:27;;;;;;;2.33;0.68;;;;;11.30;100750.00;;;;5031092;28;20223;-82
2022/02/20 00:30:55;;;;;;;3.25;0.47;;;;;11.20;100757.00;;;;5045300;28;20210;-82
2022/02/20 00:33:23;;;;;;;3.10;0.40;;;;;11.20;100762.00;;;;5042823;28;20200;-82
2022/02/20 00:35:51;;;;;;;2.05;0.40;;;;;11.20;100756.00;;;;5031322;28;20664;-82
2022/02/20 00:38:18;;;;;;;3.58;0.77;;;;;11.20;100771.00;;;;5040946;28;20199;-82
2022/02/20 00:40:45;;;;;;;0.82;0.22;;;;;11.20;100772.00;;;;5050263;28;20208;-82
2022/02/20 00:43:15;;;;;;;2.38;0.43;;;;;11.20;100775.00;;;;5042497;28;20208;-81
2022/02/20 00:45:42;;;;;;;2.30;0.40;;;;;11.20;100779.00;;;;5034301;28;20219;-82
2022/02/20 00:48:09;;;;;;;1.50;0.20;;;;;11.20;100793.00;;;;5030217;28;20223;-82
2022/02/20 00:50:37;;;;;;;1.30;0.20;;;;;11.20;100816.00;;;;5030669;28;20196;-82
2022/02/20 00:53:05;;;;;;;2.47;0.43;;;;;11.20;100811.00;;;;5033374;28;20275;-82
2022/02/20 00:55:32;;;;;;;1.40;0.15;;;;;11.10;100806.00;;;;5032350;28;20292;-82
2022/02/20 00:57:59;;;;;;;2.33;0.13;;;;;11.10;100811.00;;;;5042600;28;20211;-81
2022/02/20 01:00:28;;;;;;;1.40;0.22;;;;;11.10;100817.00;;;;5038130;28;20796;-82
2022/02/20 01:02:55;;;;;;;0.63;0.03;;;;;11.10;100828.00;;;;5044914;28;20192;-82
2022/02/20 01:05:22;;;;;;;1.60;0.43;;;;;11.10;100822.00;;;;5038076;28;20203;-81
2022/02/20 01:07:50;;;;;;;1.67;0.15;;;;;11.10;100836.00;;;;5036243;28;20856;-82
2022/02/20 01:10:19;;;;;;;1.48;0.20;;;;;11.10;100832.00;;;;5038007;28;20203;-81
2022/02/20 01:12:47;;;;;;;1.23;0.32;;;;;11.20;100838.00;;;;5029315;28;20196;-82
2022/02/20 01:15:15;;;;;;;1.92;0.63;;;;;11.20;100845.00;;;;5043110;28;20211;-82
2022/02/20 01:17:43;;;;;;;0.17;0.10;;;;;11.20;100849.00;;;;5042918;28;20224;-82
2022/02/20 01:20:11;;;;;;;1.65;0.40;;;;;11.30;100853.00;;;;5037610;28;20246;-81
2022/02/20 01:22:39;;;;;;;4.55;0.47;;;;;11.30;100854.00;;;;5035456;28;20184;-81
2022/02/20 01:25:07;;;;;;;4.60;0.60;;;;;11.30;100857.00;;;;5033433;28;20274;-81
2022/02/20 01:27:34;;;;;;;0.52;0.10;;;;;11.30;100867.00;;;;5047989;28;20953;-82
2022/02/20 01:30:01;;;;;;;2.05;0.30;;;;;11.30;100873.00;;;;5031976;28;20547;-81
2022/02/20 01:32:29;;;;;;;2.08;0.52;;;;;11.30;100865.00;;;;5042462;28;20249;-82
2022/02/20 01:34:57;;;;;;;1.17;0.20;;;;;11.20;100872.00;;;;5040323;28;20211;-82
2022/02/20 01:37:25;;;;;;;4.82;0.80;;;;;11.30;100872.00;;;;5041350;28;20609;-82
2022/02/20 01:39:52;;;;;;;1.95;0.25;;;;;11.30;100861.00;;;;5043804;28;20200;-81
2022/02/20 01:42:19;;;;;;;0.30;0.13;;;;;11.30;100871.00;;;;5046583;28;20226;-82
2022/02/20 01:44:46;;;;;;;2.13;0.17;;;;;11.30;100863.00;;;;5047286;28;20199;-82
2022/02/20 01:47:16;;;;;;;0.40;0.08;;;;;11.30;100873.00;;;;5046657;28;20192;-82
2022/02/20 01:49:43;;;;;;;2.10;0.50;;;;;11.30;100864.00;;;;5044428;28;20219;-82
2022/02/20 01:52:12;;;;;;;1.45;0.20;;;;;11.30;100864.00;;;;5046752;28;21018;-82
2022/02/20 01:54:40;;;;;;;0.57;0.15;;;;;11.40;100878.00;;;;5041547;28;20287;-82
2022/02/20 01:57:08;;;;;;;0.88;0.10;;;;;11.40;100879.00;;;;5039843;28;20591;-82
2022/02/20 01:59:36;;;;;;;0.95;0.30;;;;;11.40;100879.00;;;;5047385;28;20195;-82
2022/02/20 02:02:04;;;;;;;2.15;0.30;;;;;11.40;100879.00;;;;5042869;28;20615;-82
2022/02/20 02:04:32;;;;;;;1.15;0.25;;;;;11.40;100888.00;;;;5045164;28;20200;-81
2022/02/20 02:06:59;;;;;;;2.72;0.10;;;;;11.40;100896.00;;;;5045934;28;20191;-81
2022/02/20 02:09:27;;;;;;;0.10;0.10;;;;;11.40;100893.00;;;;5043196;28;20223;-82
2022/02/20 02:11:55;;;;;;;0.47;0.13;;;;;11.40;100888.00;;;;5047610;28;20211;-81
2022/02/20 02:14:22;;;;;;;0.90;0.10;;;;;11.50;100892.00;;;;5046823;28;20598;-82
2022/02/20 02:16:49;;;;;;;0.38;0.10;;;;;11.50;100888.00;;;;5044679;28;20232;-82
2022/02/20 02:19:16;;;;;;;2.53;0.10;;;;;11.50;100879.00;;;;5036109;28;20191;-82
2022/02/20 02:21:43;;;;;;;0.60;0.08;;;;;11.50;100882.00;;;;5040920;28;20206;-81
2022/02/20 02:24:12;;;;;;;1.05;0.10;;;;;11.50;100889.00;;;;5046749;28;20196;-81
2022/02/20 02:26:40;;;;;;;1.35;0.10;;;;;11.50;100883.00;;;;5045988;28;20184;-82
2022/02/20 02:29:07;;;;;;;1.45;0.43;;;;;11.50;100885.00;;;;5030663;28;20250;-82
2022/02/20 02:31:34;;;;;;;0.52;0.20;;;;;11.50;100884.00;;;;5048071;28;20689;-82
2022/02/20 02:34:02;;;;;;;1.00;0.25;;;;;11.50;100875.00;;;;5053208;28;20533;-82
2022/02/20 02:36:29;;;;;;;0.35;0.10;;;;;11.50;100878.00;;;;5042544;28;20203;-82
2022/02/20 02:38:56;;;;;;;1.40;0.40;;;;;11.60;100877.00;;;;5041114;28;20208;-82
2022/02/20 02:41:25;;;;;;;1.75;0.10;;;;;11.60;100868.00;;;;5045187;28;20682;-82
2022/02/20 02:43:52;;;;;;;0.77;0.20;;;;;11.60;100877.00;;;;5044157;28;20196;-81
2022/02/20 02:46:20;;;;;;;2.33;0.10;;;;;11.60;100869.00;;;;5036747;28;20199;-81
2022/02/20 02:48:49;;;;;;;0.95;0.20;;;;;11.70;100875.00;;;;5038942;28;20219;-82
2022/02/20 02:51:17;;;;;;;1.00;0.40;;;;;11.70;100873.00;;;;5047537;28;20188;-81
2022/02/20 02:53:45;;;;;;;0.52;0.10;;;;;11.70;100871.00;;;;5035852;28;20216;-82
2022/02/20 02:56:12;;;;;;;1.65;0.15;;;;;11.70;100875.00;;;;5034484;28;20200;-81
2022/02/20 02:58:42;;;;;;;0.80;0.10;;;;;11.70;100875.00;;;;5045548;28;20208;-81
2022/02/20 03:01:09;;;;;;;2.05;0.10;;;;;11.70;100879.00;;;;5031172;28;20255;-81
2022/02/20 03:03:36;;;;;;;1.90;0.20;;;;;11.80;100887.00;;;;5030805;28;20262;-81
2022/02/20 03:06:08;;;;;;;0.30;0.10;;;;;11.70;100885.00;;;;5042624;28;20287;-81
2022/02/20 03:08:36;;;;;;;1.13;0.47;;;;;11.80;100880.00;;;;5042070;28;20215;-81
2022/02/20 03:11:03;;;;;;;3.58;0.40;;;;;11.80;100876.00;;;;5041827;28;20215;-82
2022/02/20 03:13:30;;;;;;;0.22;0.10;;;;;11.80;100876.00;;;;5030117;28;20232;-82
2022/02/20 03:15:59;;;;;;;2.78;0.20;;;;;11.80;100864.00;;;;5037145;28;20199;-82
2022/02/20 03:18:29;;;;;;;2.13;0.43;;;;;11.90;100856.00;;;;5050933;28;20227;-82
2022/02/20 03:20:56;;;;;;;3.25;0.38;;;;;11.90;100857.00;;;;5032075;28;20192;-81
2022/02/20 03:23:23;;;;;;;2.03;0.15;;;;;11.90;100850.00;;;;5048631;28;20199;-81
2022/02/20 03:25:51;;;;;;;1.95;0.20;;;;;11.90;100844.00;;;;5041256;28;20202;-82
2022/02/20 03:28:18;;;;;;;2.17;0.50;;;;;11.90;100843.00;;;;5051614;28;20653;-82
2022/02/20 03:30:46;;;;;;;0.75;0.20;;;;;11.90;100846.00;;;;5047357;28;20207;-81
2022/02/20 03:33:15;;;;;;;0.70;0.20;;;;;11.90;100839.00;;;;5051089;28;20199;-82
2022/02/20 03:35:42;;;;;;;2.03;0.20;;;;;11.90;100844.00;;;;5039160;28;20601;-82
2022/02/20 03:38:10;;;;;;;0.75;0.25;;;;;11.90;100846.00;;;;5032893;28;20203;-81
2022/02/20 03:40:38;;;;;;;2.58;0.40;;;;;11.90;100833.00;;;;5041876;28;20195;-81
2022/02/20 03:43:05;;;;;;;1.48;0.52;;;;;11.90;100843.00;;;;5035460;28;20216;-81
2022/02/20 03:45:33;;;;;;;1.60;0.30;;;;;11.90;100834.00;;;;5032078;28;20197;-82
2022/02/20 03:48:01;;;;;;;1.05;0.30;;;;;11.90;100834.00;;;;5050759;28;20211;-81
2022/02/20 03:50:29;;;;;;;1.73;0.30;;;;;11.80;100831.00;;;;5050975;28;20219;-81
2022/02/20 03:52:56;;;;;;;0.60;0.20;;;;;11.80;100825.00;;;;5051155;28;20203;-81
2022/02/20 03:55:24;;;;;;;1.10;0.20;;;;;11.80;100814.00;;;;5052030;28;20198;-81
2022/02/20 03:57:51;;;;;;;2.55;0.55;;;;;11.80;100823.00;;;;5050957;28;20615;-82
2022/02/20 04:00:20;;;;;;;1.33;0.43;;;;;11.80;100812.00;;;;5047282;28;20199;-82
2022/02/20 04:02:47;;;;;;;0.98;0.28;;;;;11.80;100807.00;;;;5031283;28;20188;-81
2022/02/20 04:05:16;;;;;;;3.15;0.40;;;;;11.80;100797.00;;;;5032617;28;20201;-81
2022/02/20 04:07:46;;;;;;;0.75;0.20;;;;;11.80;100803.00;;;;5036713;28;20204;-81
2022/02/20 04:10:15;;;;;;;0.45;0.20;;;;;11.80;100810.00;;;;5049588;28;20229;-81
2022/02/20 04:12:43;;;;;;;3.53;0.57;;;;;11.80;100815.00;;;;5049709;28;20873;-81
2022/02/20 04:15:11;;;;;;;1.35;0.20;;;;;11.80;100811.00;;;;5050030;28;20200;-82
2022/02/20 04:17:43;;;;;;;1.55;0.43;;;;;11.70;100816.00;;;;5050398;28;20302;-81
2022/02/20 04:20:12;;;;;;;3.40;0.43;;;;;11.70;100820.00;;;;5042242;28;20207;-82
2022/02/20 04:22:40;;;;;;;1.35;0.30;;;;;11.70;100814.00;;;;5046019;28;20200;-81
2022/02/20 04:25:10;;;;;;;2.67;0.50;;;;;11.70;100800.00;;;;5046977;28;20258;-82
2022/02/20 04:27:38;;;;;;;1.60;0.40;;;;;11.70;100788.00;;;;5036034;28;20295;-82
2022/02/20 04:30:06;;;;;;;1.08;0.43;;;;;11.70;100782.00;;;;5044274;28;20231;-81
2022/02/20 04:32:34;;;;;;;0.55;0.28;;;;;11.70;100785.00;;;;5043946;28;20286;-82
2022/02/20 04:35:03;;;;;;;2.58;0.77;;;;;11.70;100788.00;;;;5033121;28;20200;-82
2022/02/20 04:37:31;;;;;;;1.75;0.80;;;;;11.70;100777.00;;;;5047772;28;20204;-82
2022/02/20 04:40:00;;;;;;;1.08;0.70;;;;;11.70;100770.00;;;;5049238;28;20215;-82
2022/02/20 04:42:28;;;;;;;2.25;1.10;;;;;11.70;100762.00;;;;5037130;28;20219;-82
2022/02/20 04:44:56;;;;;;;2.35;0.70;;;;;11.70;100761.00;;;;5043708;28;20203;-81
2022/02/20 04:47:23;;;;;;;3.58;1.30;;;;;11.70;100755.00;;;;5040715;28;20200;-82
2022/02/20 04:49:50;;;;;;;1.75;0.70;;;;;11.70;100755.00;;;;5048948;28;20234;-81
2022/02/20 04:52:18;;;;;;;2.83;1.23;;;;;11.70;100752.00;;;;5050357;28;20192;-82
2022/02/20 04:54:45;;;;;;;4.25;1.73;;;;;11.80;100742.00;;;;5048023;28;20196;-82
2022/02/20 04:57:12;;;;;;;2.65;1.33;;;;;11.70;100734.00;;;;5041310;28;20207;-82
2022/02/20 04:59:41;;;;;;;3.55;1.65;;;;;11.70;100718.00;;;;5033160;28;20193;-82
2022/02/20 05:02:08;;;;;;;3.10;1.35;;;;;11.80;100713.00;;;;5048689;28;20196;-82
2022/02/20 05:04:35;;;;;;;2.50;1.65;;;;;11.80;100699.00;;;;5034024;28;20203;-82
2022/02/20 05:07:03;;;;;;;5.13;2.05;;;;;11.80;100698.00;;;;5048049;28;20585;-82
2022/02/20 05:09:30;;;;;;;2.80;1.65;;;;;11.70;100689.00;;;;5048519;28;20215;-82
2022/02/20 05:11:57;;;;;;;2.40;1.70;;;;;11.70;100674.00;;;;5048439;28;20261;-82
2022/02/20 05:14:24;;;;;;;2.25;1.75;;;;;11.80;100682.00;;;;5043385;28;20188;-82
2022/02/20 05:16:53;;;;;;;3.35;2.20;;;;;11.70;100671.00;;;;5043675;28;20235;-81
2022/02/20 05:19:20;;;;;;;2.00;1.65;;;;;11.80;100671.00;;;;5048792;28;20589;-82
2022/02/20 05:21:47;;;;;;;4.75;2.38;;;;;11.80;100655.00;;;;5044021;28;20188;-81
2022/02/20 05:24:15;;;;;;;3.40;2.42;;;;;11.80;100634.00;;;;5029391;28;20196;-81
2022/02/20 05:26:42;;;;;;;2.92;2.03;;;;;11.80;100616.00;;;;5030386;28;20200;-82
2022/02/20 05:29:09;;;;;;;4.82;2.80;;;;;11.70;100597.00;;;;5034835;28;20277;-81
2022/02/20 05:31:36;;;;;;;3.42;2.50;;;;;11.70;100580.00;;;;5033235;28;20199;-82
2022/02/20 05:34:05;;;;;;;4.30;2.95;;;;;11.70;100560.00;;;;5034977;28;20196;-81
2022/02/20 05:36:32;;;;;;;5.28;3.15;;;;;11.70;100546.00;;;;5048118;28;20200;-81
2022/02/20 05:39:00;;;;;;;6.07;2.63;;;;;11.70;100552.00;;;;5031111;28;20204;-81
2022/02/20 05:41:27;;;;;;;5.55;2.80;;;;;11.70;100542.00;;;;5028940;28;20613;-81
2022/02/20 05:43:54;;;;;;;3.85;2.65;;;;;11.70;100529.00;;;;5037843;28;20192;-82
2022/02/20 05:46:21;;;;;;;6.28;2.47;;;;;11.70;100526.00;;;;5043887;28;20677;-82
2022/02/20 05:48:48;;;;;;;8.00;2.92;;;;;11.70;100517.00;;;;5032929;28;20199;-82
2022/02/20 05:51:17;;;;;;;4.15;2.47;;;;;11.70;100527.00;;;;5038862;28;20203;-81
2022/02/20 05:53:44;;;;;;;5.28;2.50;;;;;11.70;100536.00;;;;5057041;28;20192;-81
2022/02/20 05:56:14;;;;;;;5.50;2.40;;;;;11.70;100511.00;;;;5043936;28;20189;-81
2022/02/20 05:58:41;;;;;;;3.85;2.35;;;;;11.70;100511.00;;;;5034356;28;20314;-81
2022/02/20 06:01:08;;;;;;;3.63;2.92;;;;;11.70;100511.00;;;;5039427;28;20199;-81
2022/02/20 06:03:36;;;;;;;8.05;3.13;;;;;11.70;100510.00;;;;5040212;28;20212;-81
2022/02/20 06:06:03;;;;;;;3.90;2.60;;;;;11.70;100509.00;;;;5042173;28;20194;-81
2022/02/20 06:08:32;;;;;;;4.28;2.45;;;;;11.80;100496.00;;;;5030569;28;20207;-81
2022/02/20 06:10:59;;;;;;;5.70;2.25;;;;;11.80;100499.00;;;;5029726;28;20228;-81
2022/02/20 06:13:26;;;;;;;4.40;2.60;;;;;11.80;100500.00;;;;5029921;28;20202;-81
2022/02/20 06:15:54;;;;;;;3.15;2.42;;;;;11.80;100504.00;;;;5046270;28;20196;-80
2022/02/20 06:18:21;;;;;;;3.92;2.20;;;;;11.80;100478.00;;;;5042001;28;20219;-81
2022/02/20 06:20:48;;;;;;;5.57;2.53;;;;;11.80;100490.00;;;;5042767;28;20199;-82
2022/02/20 06:23:16;;;;;;;4.90;2.35;;;;;11.80;100503.00;;;;5036575;28;20590;-81
2022/02/20 06:25:44;;;;;;;7.25;2.20;;;;;11.80;100491.00;;;;5039464;28;20200;-80
2022/02/20 06:28:13;;;;;;;3.92;2.08;;;;;11.80;100481.00;;;;5038164;28;20203;-80
2022/02/20 06:30:40;;;;;;;5.15;2.05;;;;;11.80;100471.00;;;;5033784;28;20231;-81
2022/02/20 06:33:08;;;;;;;6.82;2.33;;;;;11.90;100471.00;;;;5045453;28;20196;-80
2022/02/20 06:35:35;;;;;;;5.75;2.80;;;;;11.90;100466.00;;;;5044150;28;20615;-80
2022/02/20 06:38:02;;;;;;;3.70;1.45;;;;;11.90;100477.00;;;;5040684;28;20203;-80
2022/02/20 06:40:31;;;;;;;2.90;2.20;;;;;11.90;100476.00;;;;5048308;28;20204;-80
2022/02/20 06:42:59;;;;;;;7.13;2.10;;;;;11.90;100463.00;;;;5039847;28;20212;-80
2022/02/20 06:45:27;;;;;;;4.35;1.85;;;;;12.00;100476.00;;;;5032615;28;20192;-80
2022/02/20 06:47:54;;;;;;;4.38;2.13;;;;;12.00;100471.00;;;;5028327;28;20578;-81
2022/02/20 06:50:22;;;;;;;6.40;2.25;;;;;12.00;100476.00;;;;5043288;28;20219;-80
2022/02/20 06:52:49;;;;;;;5.65;1.98;;;;;12.10;100472.00;;;;5052277;28;20623;-80
2022/02/20 06:55:23;;;;;;;3.55;1.88;;;;;12.10;100462.00;;;;5043970;28;20192;-80
2022/02/20 06:57:54;;;;;;;3.67;1.80;;;;;12.20;100461.00;;;;5038992;28;20198;-81
2022/02/20 07:00:22;;;;;;;5.07;2.25;;;;;12.20;100455.00;;;;5037903;28;20196;-81
2022/02/20 07:02:49;;;;;;;2.90;2.00;;;;;12.20;100461.00;;;;5048072;28;20199;-81
2022/02/20 07:05:17;;;;;;;5.82;1.98;;;;;12.30;100455.00;;;;5050427;28;20203;-80
2022/02/20 07:07:46;;;;;;;5.15;1.67;;;;;12.40;100451.00;;;;5041926;28;20208;-81
2022/02/20 07:10:14;;;;;;;3.08;1.42;;;;;12.40;100452.00;;;;5050404;28;20309;-81
2022/02/20 07:12:42;;;;;;;4.13;1.70;;;;;12.50;100442.00;;;;5037904;28;20230;-82
2022/02/20 07:15:10;;;;;;;3.13;1.38;;;;;12.50;100441.00;;;;5041043;28;20198;-82
2022/02/20 07:17:38;;;;;;;5.55;2.10;;;;;12.60;100436.00;;;;5032018;28;20236;-81
2022/02/20 07:20:07;;;;;;;4.60;1.63;;;;;12.60;100425.00;;;;5045178;28;20200;-82
2022/02/20 07:22:36;;;;;;;4.95;1.60;;;;;12.70;100426.00;;;;5033310;28;20191;-82
2022/02/20 07:25:04;;;;;;;5.57;1.80;;;;;12.70;100417.00;;;;5044365;28;20230;-82
2022/02/20 07:27:38;;;;;;;3.85;1.45;;;;;12.70;100419.00;;;;5045580;28;22168;-81
2022/02/20 07:30:07;;;;;;;3.42;1.63;;;;;12.90;100404.00;;;;5034882;28;20256;-81
2022/02/20 07:32:34;;;;;;;5.57;1.77;;;;;12.90;100409.00;;;;5033407;28;20705;-81
2022/02/20 07:35:04;;;;;;;2.97;1.63;;;;;13.00;100406.00;;;;5049789;28;20200;-82
2022/02/20 07:37:31;;;;;;;2.08;1.27;;;;;13.10;100404.00;;;;5045024;28;20693;-82
2022/02/20 07:39:58;;;;;;;4.85;1.60;;;;;13.10;100395.00;;;;5040935;28;20669;-82
2022/02/20 07:42:26;;;;;;;4.43;1.48;;;;;13.20;100388.00;;;;5050490;28;20239;-81
2022/02/20 07:44:53;;;;;;;2.35;1.15;;;;;13.30;100383.00;;;;5050151;28;20280;-81
2022/02/20 07:47:21;;;;;;;2.67;1.35;;;;;13.30;100387.00;;;;5047875;28;20191;-83
2022/02/20 07:49:48;;;;;;;2.75;0.90;;;;;13.40;100384.00;;;;5049688;28;20304;-81
2022/02/20 07:52:18;;;;;;;2.08;1.05;;;;;13.50;100369.00;;;;5049332;28;20277;-80
2022/02/20 07:54:46;;;;;;;2.55;1.08;;;;;13.60;100375.00;;;;5050666;28;20195;-81
2022/02/20 07:57:14;;;;;;;3.45;1.40;;;;;13.60;100373.00;;;;5041533;28;20207;-82
2022/02/20 07:59:41;;;;;;;3.20;0.85;;;;;13.70;100366.00;;;;5049138;28;20204;-82
2022/02/20 08:02:09;;;;;;;3.85;0.98;;;;;13.80;100372.00;;;;5046713;28;20199;-81
2022/02/20 08:04:36;;;;;;;2.08;0.98;;;;;13.90;100359.00;;;;5049407;28;20282;-81
2022/02/20 08:07:08;;;;;;;2.58;1.15;;;;;13.90;100369.00;;;;5047569;28;20622;-81
2022/02/20 08:09:36;;;;;;;5.28;1.20;;;;;14.00;100364.00;;;;5050822;28;21102;-82
2022/02/20 08:12:09;;;;;;;3.08;1.20;;;;;14.00;100375.00;;;;5048920;28;20206;-81
2022/02/20 08:14:37;;;;;;;6.68;1.10;;;;;14.10;100366.00;;;;5049585;28;20192;-81
2022/02/20 08:17:04;;;;;;;3.17;1.08;;;;;14.20;100361.00;;;;5039260;28;20236;-82
2022/02/20 08:19:32;;;;;;;6.00;1.63;;;;;14.30;100371.00;;;;5048317;28;20203;-82
2022/02/20 08:21:59;;;;;;;3.75;1.27;;;;;14.30;100366.00;;;;5043596;28;20239;-81
2022/02/20 08:24:27;;;;;;;6.60;1.58;;;;;14.40;100385.00;;;;5038028;28;20200;-82
2022/02/20 08:26:55;;;;;;;6.55;1.50;;;;;14.40;100381.00;;;;5039606;28;20793;-81
2022/02/20 08:29:23;;;;;;;8.35;1.65;;;;;14.50;100388.00;;;;5050810;28;20192;-81
2022/02/20 08:31:52;;;;;;;6.38;1.70;;;;;14.60;100376.00;;;;5037655;28;20425;-82
2022/02/20 08:34:19;;;;;;;6.82;1.83;;;;;14.60;100389.00;;;;5041629;28;20208;-82
2022/02/20 08:36:46;;;;;;;9.35;2.00;;;;;14.60;100392.00;;;;5045488;28;20188;-82
2022/02/20 08:39:14;;;;;;;7.50;1.40;;;;;14.70;100371.00;;;;5041071;28;20211;-82
2022/02/20 08:41:41;;;;;;;6.63;1.70;;;;;14.80;100376.00;;;;5044100;28;20701;-82
2022/02/20 08:44:10;;;;;;;7.38;1.60;;;;;14.80;100350.00;;;;5043112;28;20192;-80
2022/02/20 08:46:37;;;;;;;6.00;1.58;;;;;14.80;100377.00;;;;5043441;28;20207;-82
2022/02/20 08:49:04;;;;;;;5.93;1.55;;;;;14.90;100356.00;;;;5030577;28;20196;-80
2022/02/20 08:51:32;;;;;;;7.57;2.42;;;;;14.90;100360.00;;;;5045307;28;20219;-80
2022/02/20 08:53:59;;;;;;;6.32;2.35;;;;;15.00;100358.00;;;;5039856;28;20283;-81
2022/02/20 08:56:27;;;;;;;10.75;2.72;;;;;15.00;100367.00;;;;5042211;28;20230;-81
2022/02/20 08:58:54;;;;;;;8.50;1.98;;;;;15.10;100355.00;;;;5036950;28;20199;-81
2022/02/20 09:01:24;;;;;;;9.93;2.72;;;;;15.10;100362.00;;;;5032775;28;20195;-81
2022/02/20 09:03:52;;;;;;;7.68;2.22;;;;;15.20;100362.00;;;;5039418;28;20196;-81
2022/02/20 09:06:19;;;;;;;16.67;2.80;;;;;15.20;100371.00;;;;5039509;28;20192;-82
2022/02/20 09:08:47;;;;;;;11.75;3.13;;;;;15.20;100363.00;;;;5045803;28;20199;-81
2022/02/20 09:11:14;;;;;;;12.27;2.78;;;;;15.20;100359.00;;;;5047491;28;20227;-81
2022/02/20 09:13:41;;;;;;;9.55;3.17;;;;;15.20;100347.00;;;;5041827;28;20450;-80
2022/02/20 09:16:08;;;;;;;11.63;2.92;;;;;15.30;100341.00;;;;5042068;28;20197;-81
2022/02/20 09:18:37;;;;;;;11.60;2.47;;;;;15.30;100341.00;;;;5047931;28;20232;-81
2022/02/20 09:21:04;;;;;;;6.45;2.40;;;;;15.30;100354.00;;;;5041701;28;20199;-81
2022/02/20 09:23:32;;;;;;;13.63;2.58;;;;;15.30;100360.00;;;;5033475;28;20195;-81
2022/02/20 09:25:59;;;;;;;12.77;3.28;;;;;15.40;100359.00;;;;5041880;28;20188;-82
2022/02/20 09:28:26;;;;;;;8.38;2.03;;;;;15.40;100349.00;;;;5045760;28;20249;-81
2022/02/20 09:30:54;;;;;;;11.02;2.58;;;;;15.50;100348.00;;;;5048012;28;20219;-81
2022/02/20 09:33:21;;;;;;;11.02;2.75;;;;;15.50;100338.00;;;;5041127;28;20197;-80
2022/02/20 09:35:50;;;;;;;11.95;3.17;;;;;15.50;100344.00;;;;5040490;28;20218;-80
2022/02/20 09:38:17;;;;;;;9.32;3.05;;;;;15.60;100354.00;;;;5047505;28;20724;-79
2022/02/20 09:40:44;;;;;;;12.23;3.47;;;;;15.70;100351.00;;;;5032851;28;20749;-81
2022/02/20 09:43:13;;;;;;;8.25;2.38;;;;;15.70;100337.00;;;;5045020;28;20226;-80
2022/02/20 09:45:45;;;;;;;11.48;2.70;;;;;15.70;100352.00;;;;5039260;28;20294;-80
2022/02/20 09:48:13;;;;;;;9.75;2.65;;;;;15.80;100323.00;;;;5043143;28;20208;-80
2022/02/20 09:50:41;;;;;;;12.65;2.45;;;;;15.80;100334.00;;;;5047596;28;20209;-78
2022/02/20 09:53:10;;;;;;;9.52;2.92;;;;;15.80;100319.00;;;;5038038;28;20200;-79
2022/02/20 09:55:37;;;;;;;10.10;2.20;;;;;15.90;100319.00;;;;5042332;28;20195;-79
2022/02/20 09:58:04;;;;;;;11.02;2.35;;;;;15.90;100321.00;;;;5044884;28;20196;-80
2022/02/20 10:00:32;;;;;;;11.57;2.58;;;;;16.00;100332.00;;;;5033176;28;20212;-79
2022/02/20 10:03:02;;;;;;;14.52;2.80;;;;;16.00;100317.00;;;;5040366;28;20203;-81
2022/02/20 10:05:30;;;;;;;14.68;3.30;;;;;16.00;100325.00;;;;5044002;28;20188;-80
2022/02/20 10:07:57;;;;;;;9.50;2.67;;;;;16.00;100335.00;;;;5042433;28;20243;-80
2022/02/20 10:10:27;;;;;;;10.18;2.47;;;;;16.00;100335.00;;;;5034888;28;20225;-81
2022/02/20 10:12:59;;;;;;;13.05;2.17;;;;;16.00;100317.00;;;;5039314;28;20299;-81
2022/02/20 10:15:28;;;;;;;11.98;3.28;;;;;16.00;100316.00;;;;5047241;28;20198;-82
2022/02/20 10:17:59;;;;;;;13.18;2.45;;;;;16.00;100332.00;;;;5041527;28;20224;-79
2022/02/20 10:20:27;;;;;;;13.85;2.60;;;;;16.00;100335.00;;;;5030688;28;20204;-82
2022/02/20 10:22:54;;;;;;;15.10;3.97;;;;;16.00;100341.00;;;;5057091;28;20203;-79
2022/02/20 10:25:22;;;;;;;8.75;2.55;;;;;16.10;100355.00;;;;5044820;28;20394;-79
2022/02/20 10:27:52;;;;;;;17.13;3.15;;;;;16.10;100350.00;;;;5047576;28;20226;-82
2022/02/20 10:30:22;;;;;;;13.65;3.05;;;;;16.10;100349.00;;;;5035402;28;20203;-79
2022/02/20 10:33:10;;;;;;;19.38;4.10;;;;;16.00;100356.00;;;;5048252;28;20203;-79
2022/02/20 10:35:40;;;;;;;13.20;3.65;;;;;16.00;100340.00;;;;5047135;28;20199;-80
2022/02/20 10:38:12;;;;;;;18.30;3.22;;;;;16.00;100347.00;;;;5044917;28;20299;-80
2022/02/20 10:40:41;;;;;;;11.18;2.42;;;;;16.10;100350.00;;;;5036003;28;20286;-80
2022/02/20 10:43:24;;;;;;;11.32;2.95;;;;;16.00;100359.00;;;;5045626;28;20251;-81
2022/02/20 10:46:05;;;;;;;12.30;2.65;;;;;16.10;100354.00;;;;5046533;28;20210;-80
2022/02/20 10:48:39;;;;;;;21.13;3.60;;;;;16.00;100365.00;;;;5042979;28;20568;-80
2022/02/20 10:51:06;;;;;;;15.30;3.10;;;;;16.00;100348.00;;;;5026938;28;20253;-81
2022/02/20 10:53:34;;;;;;;16.85;2.88;;;;;16.00;100347.00;;;;5041456;28;20204;-81
2022/02/20 10:56:01;;;;;;;16.80;2.85;;;;;16.00;100351.00;;;;5043349;28;20202;-83
2022/02/20 10:58:32;;;;;;;12.85;2.47;;;;;16.00;100344.00;;;;5041898;28;20199;-82
2022/02/20 11:01:01;;;;;;;11.48;3.30;;;;;15.90;100366.00;;;;5042008;28;20600;-82
2022/02/20 11:03:29;;;;;;;13.10;2.80;;;;;15.90;100352.00;;;;5047997;28;20207;-83
2022/02/20 11:05:58;;;;;;;10.48;3.28;;;;;15.90;100343.00;;;;5046622;28;20187;-83
2022/02/20 11:08:29;;;;;;;11.85;3.58;;;;;15.80;100339.00;;;;5034200;28;20207;-83
2022/02/20 11:10:57;;;;;;;10.50;2.33;;;;;15.90;100324.00;;;;5047915;28;20410;-82
2022/02/20 11:13:26;;;;;;;10.27;2.15;;;;;15.80;100316.00;;;;5042836;28;20257;-83
2022/02/20 11:15:55;;;;;;;17.20;3.83;;;;;15.80;100320.00;;;;5046338;28;20215;-80
2022/02/20 11:18:22;;;;;;;13.32;3.38;;;;;15.80;100305.00;;;;5026410;28;20750;-82
2022/02/20 11:20:51;;;;;;;13.88;2.97;;;;;15.80;100303.00;;;;5027262;28;20207;-80
2022/02/20 11:23:25;;;;;;;11.48;2.45;;;;;15.80;100306.00;;;;5029192;28;20201;-81
2022/02/20 11:25:54;;;;;;;11.02;2.75;;;;;15.80;100298.00;;;;5040170;28;20188;-81
2022/02/20 11:28:22;;;;;;;10.35;2.92;;;;;15.80;100304.00;;;;5048128;28;20237;-80
2022/02/20 11:30:49;;;;;;;8.65;2.60;;;;;15.80;100290.00;;;;5047412;28;20207;-82
2022/02/20 11:33:20;;;;;;;12.82;2.50;;;;;15.80;100295.00;;;;5054391;28;20253;-82
2022/02/20 11:35:52;;;;;;;9.57;2.22;;;;;15.70;100272.00;;;;5063552;28;20207;-80
2022/02/20 11:38:21;;;;;;;10.52;3.22;;;;;15.80;100278.00;;;;5033863;28;20219;-82
2022/02/20 11:41:02;;;;;;;17.30;3.08;;;;;15.70;100281.00;;;;5032027;28;20198;-84
2022/02/20 11:43:41;;;;;;;10.60;2.75;;;;;15.70;100267.00;;;;5040413;28;20223;-83
2022/02/20 11:46:14;;;;;;;10.27;2.55;;;;;15.70;100275.00;;;;5046984;28;20197;-85
2022/02/20 11:49:26;;;;;;;10.50;2.30;;;;;15.60;100269.00;;;;5037023;28;20207;-84
2022/02/20 11:52:05;;;;;;;8.68;2.30;;;;;15.60;100258.00;;;;5050358;28;20285;-84
2022/02/20 11:54:35;;;;;;;8.93;2.33;;;;;15.70;100241.00;;;;5039656;28;20195;-85
2022/02/20 11:57:32;;;;;;;15.35;2.85;;;;;15.60;100234.00;;;;5048679;28;20219;-85
2022/02/20 12:00:20;;;;;;;13.15;2.30;;;;;15.60;100238.00;;;;5045733;28;20203;-85
2022/02/20 12:03:06;;;;;;;5.90;2.50;;;;;15.60;100219.00;;;;5051465;28;20672;-85
2022/02/20 12:05:36;;;;;;;12.77;3.17;;;;;15.70;100242.00;;;;5051130;28;20669;-85
2022/02/20 12:08:07;;;;;;;14.18;2.85;;;;;15.70;100238.00;;;;5040894;28;20197;-87
2022/02/20 12:10:36;;;;;;;11.95;2.97;;;;;15.70;100216.00;;;;5036203;28;20198;-85
2022/02/20 12:13:28;;;;;;;10.13;2.25;;;;;15.60;100233.00;;;;5048157;28;20228;-83